Terminal Aerodrome Forecast
Issued by NWS

Home | Current Version | Previous Version | Text Only | Print | Product List | Glossary On
Versions: 1 2 3 4 5 6 7 8 9 10 11 12
000
FTUS43 KMPX 151740
TAFRWF
TAF
KRWF 151740Z 1518/1618 17020G29KT P6SM BKN250
     FM152300 14015KT P6SM FEW050 BKN080
     FM160900 16008KT P6SM OVC050
     FM161600 21006KT P6SM VCSH OVC040=

USA.gov is the U.S. government's official web portal to all federal, state and local government web resources and services.